Time;durP1;ratioP1;P1;durP2;ratioP2;P2;SDS_P1;SDS_P2;PMS_P1;PMS_P2;Temp;Humidity;BMP_temperature;BMP_pressure;BME280_temperature;BME280_humidity;BME280_pressure;Samples;Min_cycle;Max_cycle;Signal;HPM_P1;HPM_P2
2021/07/26 00:02:38;;;;;;;;;17.00;15.00;;;;;31.42;30.59;101165.28;144172;628;132012;-67
2021/07/26 00:05:30;;;;;;;;;15.75;14.75;;;;;31.12;31.04;101170.34;144151;649;132010;-66
2021/07/26 00:08:22;;;;;;;;;14.00;14.00;;;;;31.17;30.89;101162.56;144174;598;131021;-65
2021/07/26 00:11:15;;;;;;;;;14.50;13.50;;;;;31.36;31.04;101158.69;144151;579;132010;-66
2021/07/26 00:14:07;;;;;;;;;12.50;10.50;;;;;31.39;30.43;101161.06;144180;639;131021;-67
2021/07/26 00:16:59;;;;;;;;;14.50;14.50;;;;;31.16;30.59;101158.16;144171;584;131027;-69
2021/07/26 00:19:52;;;;;;;;;12.75;12.75;;;;;31.08;30.69;101158.16;144170;569;132008;-66
2021/07/26 00:22:44;;;;;;;;;14.00;11.75;;;;;30.98;30.74;101157.44;144151;677;132010;-67
2021/07/26 00:25:36;;;;;;;;;14.00;14.00;;;;;30.75;30.91;101157.22;144164;580;131020;-67
2021/07/26 00:28:28;;;;;;;;;11.75;11.75;;;;;30.59;31.27;101152.56;144152;587;132010;-70
2021/07/26 00:31:21;;;;;;;;;13.00;13.00;;;;;30.54;30.67;101151.22;144173;716;131021;-68
2021/07/26 00:34:45;;;;;;;;;11.00;11.00;;;;;30.37;31.43;101144.84;144153;565;132912;-69
2021/07/26 00:37:37;;;;;;;;;12.00;11.25;;;;;30.50;30.95;101144.41;144177;581;131022;-68
2021/07/26 00:40:29;;;;;;;;;12.25;12.00;;;;;30.70;30.69;101138.72;144155;616;131016;-69
2021/07/26 00:43:21;;;;;;;;;13.25;13.25;;;;;30.44;31.41;101141.47;144168;633;132008;-69
2021/07/26 00:46:14;;;;;;;;;10.75;10.75;;;;;30.47;31.23;101144.75;144161;572;132011;-69
2021/07/26 00:49:09;;;;;;;;;15.50;14.50;;;;;30.38;31.79;101153.81;144169;601;132008;-70
2021/07/26 00:52:03;;;;;;;;;12.50;12.50;;;;;30.69;31.52;101164.97;144148;573;132010;-69
2021/07/26 00:54:56;;;;;;;;;14.00;14.00;;;;;30.98;31.02;101154.72;144156;563;132008;-67
2021/07/26 00:57:49;;;;;;;;;13.00;13.00;;;;;31.16;30.69;101173.59;144153;566;131035;-67
2021/07/26 01:00:41;;;;;;;;;13.25;13.25;;;;;31.25;30.59;101169.00;144174;618;132009;-68
2021/07/26 01:03:33;;;;;;;;;14.50;12.00;;;;;31.40;30.26;101172.78;144154;587;131912;-68
2021/07/26 01:06:42;;;;;;;;;11.00;11.00;;;;;31.37;30.00;101170.38;144170;634;131021;-67
2021/07/26 01:09:34;;;;;;;;;12.75;12.75;;;;;31.26;30.22;101176.13;144146;569;133911;-67
2021/07/26 01:12:27;;;;;;;;;10.50;10.50;;;;;31.21;30.39;101180.19;144175;565;131020;-67
2021/07/26 01:15:19;;;;;;;;;15.50;15.50;;;;;31.19;30.80;101182.25;144171;564;131017;-68
2021/07/26 01:18:28;;;;;;;;;15.00;13.75;;;;;31.16;30.36;101181.72;144177;702;131020;-67
2021/07/26 01:21:23;;;;;;;;;13.00;13.00;;;;;31.01;30.74;101182.34;144156;632;131912;-66
2021/07/26 01:24:15;;;;;;;;;17.50;17.50;;;;;30.89;30.93;101180.94;144156;583;131021;-67
2021/07/26 01:27:07;;;;;;;;;15.50;13.25;;;;;30.67;31.44;101193.25;144158;590;131016;-67
2021/07/26 01:29:59;;;;;;;;;11.50;10.50;;;;;30.19;31.87;101180.13;144172;593;132008;-67
2021/07/26 01:32:52;;;;;;;;;11.50;11.50;;;;;30.07;32.05;101177.84;144150;609;132010;-66
2021/07/26 01:35:44;;;;;;;;;15.75;13.25;;;;;30.01;32.09;101179.34;144174;623;132008;-67
2021/07/26 01:38:36;;;;;;;;;15.00;14.00;;;;;29.99;32.11;101184.06;144153;569;132913;-67
2021/07/26 01:41:35;;;;;;;;;11.75;11.75;;;;;30.07;32.18;101175.16;144173;623;131020;-67
2021/07/26 01:44:28;;;;;;;;;14.00;11.75;;;;;30.15;31.65;101186.03;144167;664;131919;-66
2021/07/26 01:47:21;;;;;;;;;13.25;12.25;;;;;30.12;31.60;101176.37;144173;565;131020;-66
2021/07/26 01:50:17;;;;;;;;;15.75;15.75;;;;;29.92;31.85;101177.59;144157;664;131016;-67
2021/07/26 01:53:09;;;;;;;;;12.75;12.75;;;;;29.96;31.82;101178.97;144162;588;131021;-66
2021/07/26 01:56:01;;;;;;;;;15.25;15.25;;;;;29.95;31.71;101188.97;144157;582;131016;-67
2021/07/26 01:58:54;;;;;;;;;13.75;11.75;;;;;30.07;31.55;101180.56;144173;636;131021;-65
2021/07/26 02:01:46;;;;;;;;;12.00;12.00;;;;;30.05;31.69;101178.84;144150;660;132912;-66
2021/07/26 02:04:39;;;;;;;;;13.50;12.25;;;;;30.09;31.53;101179.41;144175;589;131020;-65
2021/07/26 02:07:31;;;;;;;;;13.50;13.50;;;;;30.03;31.66;101175.47;144150;572;132012;-68
2021/07/26 02:10:24;;;;;;;;;14.75;14.75;;;;;29.94;31.98;101181.00;144170;572;131020;-67
2021/07/26 02:13:16;;;;;;;;;13.75;13.75;;;;;29.78;32.10;101182.53;144165;615;131913;-66
2021/07/26 02:16:20;;;;;;;;;13.25;13.25;;;;;29.74;31.92;101180.31;144170;609;131021;-68
2021/07/26 02:19:13;;;;;;;;;16.75;16.75;;;;;29.79;32.21;101178.81;144152;563;132912;-67
2021/07/26 02:22:05;;;;;;;;;14.75;13.50;;;;;29.70;32.32;101175.22;144155;677;131021;-67
2021/07/26 02:24:57;;;;;;;;;11.75;11.50;;;;;29.69;32.26;101180.78;144149;643;132010;-67
2021/07/26 02:27:49;;;;;;;;;9.75;9.25;;;;;29.55;32.54;101184.88;144174;588;131020;-68
2021/07/26 02:30:41;;;;;;;;;13.00;13.00;;;;;29.40;32.71;101183.75;144153;659;132912;-67
2021/07/26 02:33:34;;;;;;;;;18.25;15.75;;;;;29.34;32.94;101186.06;144168;569;132008;-66
2021/07/26 02:36:26;;;;;;;;;14.50;13.25;;;;;29.25;33.04;101181.56;144154;564;131913;-66
2021/07/26 02:39:18;;;;;;;;;16.50;16.50;;;;;29.12;33.31;101181.94;144176;565;131020;-68
2021/07/26 02:42:11;;;;;;;;;16.00;14.25;;;;;28.87;33.79;101186.25;144161;579;132011;-69
2021/07/26 02:45:04;;;;;;;;;13.50;12.25;;;;;28.79;33.87;101195.09;144172;631;132008;-69
2021/07/26 02:47:56;;;;;;;;;15.25;15.25;;;;;28.63;33.92;101190.31;144145;587;132012;-68
2021/07/26 02:50:48;;;;;;;;;14.50;13.50;;;;;28.81;33.59;101190.38;144155;651;132008;-69
2021/07/26 02:53:44;;;;;;;;;15.50;14.00;;;;;28.85;33.65;101189.06;144151;632;131913;-68
2021/07/26 02:56:36;;;;;;;;;12.25;12.25;;;;;29.34;32.87;101186.06;144174;585;131020;-68
2021/07/26 02:59:28;;;;;;;;;11.75;11.75;;;;;29.38;32.47;101181.19;144149;575;132010;-68
2021/07/26 03:02:20;;;;;;;;;13.00;11.00;;;;;29.44;32.40;101182.44;144171;603;131020;-69
2021/07/26 03:05:13;;;;;;;;;14.00;14.00;;;;;29.41;32.44;101185.44;144141;577;133913;-68
2021/07/26 03:08:05;;;;;;;;;13.25;13.25;;;;;29.43;32.29;101183.44;144178;677;131020;-67
2021/07/26 03:11:10;;;;;;;;;15.00;13.50;;;;;29.53;32.07;101182.34;144160;617;132010;-68
2021/07/26 03:14:02;;;;;;;;;13.00;13.00;;;;;29.62;32.10;101183.28;144169;604;132012;-68
2021/07/26 03:16:54;;;;;;;;;15.25;14.50;;;;;29.76;31.73;101183.69;144156;598;132016;-68
2021/07/26 03:19:46;;;;;;;;;13.75;13.75;;;;;29.69;31.99;101183.50;144160;616;131021;-68
2021/07/26 03:23:09;;;;;;;;;11.25;11.25;;;;;29.88;31.79;101194.16;144158;591;131912;-67
2021/07/26 03:26:03;;;;;;;;;14.75;14.75;;;;;30.16;31.49;101194.00;144172;594;131020;-67
2021/07/26 03:28:55;;;;;;;;;13.25;13.25;;;;;30.19;31.18;101196.37;144155;606;132016;-67
2021/07/26 03:31:51;;;;;;;;;15.00;15.00;;;;;30.22;31.41;101195.19;144179;575;131012;-67
2021/07/26 03:34:43;;;;;;;;;12.50;12.50;;;;;30.23;31.09;101206.91;144160;576;131017;-68
2021/07/26 03:37:36;;;;;;;;;14.75;13.00;;;;;30.19;31.13;101207.19;144168;592;132012;-65
2021/07/26 03:40:28;;;;;;;;;17.75;15.00;;;;;30.21;31.07;101207.06;144170;603;131010;-67
2021/07/26 03:43:21;;;;;;;;;16.75;15.50;;;;;30.17;31.25;101203.81;144181;601;131012;-66
2021/07/26 03:46:13;;;;;;;;;18.25;15.00;;;;;30.18;31.35;101215.47;144155;577;131016;-68
2021/07/26 03:49:05;;;;;;;;;14.50;14.00;;;;;30.21;31.25;101207.06;144156;646;131021;-68
2021/07/26 03:51:57;;;;;;;;;14.75;12.50;;;;;30.34;31.33;101207.44;144155;683;132010;-72
2021/07/26 03:54:49;;;;;;;;;14.75;12.25;;;;;30.43;31.36;101213.78;144173;646;132008;-69
2021/07/26 03:57:41;;;;;;;;;23.25;20.75;;;;;30.37;31.18;101204.44;144162;633;131010;-68
2021/07/26 04:00:34;;;;;;;;;13.25;12.75;;;;;30.29;31.27;101215.22;144170;659;132008;-70
2021/07/26 04:03:31;;;;;;;;;14.25;14.25;;;;;30.21;31.73;101221.44;144159;576;131016;-68
2021/07/26 04:06:23;;;;;;;;;15.75;14.75;;;;;30.30;31.70;101219.63;144171;569;131998;-70
2021/07/26 04:09:15;;;;;;;;;16.00;16.00;;;;;30.36;31.88;101223.56;144167;563;131012;-69
2021/07/26 04:12:13;;;;;;;;;16.00;16.00;;;;;30.23;32.29;101228.56;144171;587;131020;-69
2021/07/26 04:15:10;;;;;;;;;16.25;15.25;;;;;29.98;32.48;101231.94;144146;600;132010;-67
2021/07/26 04:18:02;;;;;;;;;18.50;16.50;;;;;29.99;32.35;101230.94;144149;590;132009;-67
2021/07/26 04:20:54;;;;;;;;;15.50;14.00;;;;;29.93;32.49;101231.56;144153;606;132010;-68
2021/07/26 04:23:46;;;;;;;;;18.50;15.25;;;;;29.98;32.53;101228.41;144176;578;132008;-69
2021/07/26 04:26:39;;;;;;;;;12.00;12.00;;;;;30.09;32.62;101233.53;144149;577;132012;-66
2021/07/26 04:29:31;;;;;;;;;21.50;18.75;;;;;30.21;32.57;101236.84;144177;680;132008;-68
2021/07/26 04:32:23;;;;;;;;;14.50;13.00;;;;;30.20;32.60;101235.12;144151;590;133912;-67
2021/07/26 04:35:16;;;;;;;;;17.00;16.50;;;;;30.17;32.12;101241.72;144175;564;132024;-68
2021/07/26 04:38:08;;;;;;;;;17.00;17.00;;;;;30.33;32.22;101246.41;144172;575;131019;-68
2021/07/26 04:41:01;;;;;;;;;15.00;14.50;;;;;30.62;32.44;101261.47;144176;724;132008;-68
2021/07/26 04:43:53;;;;;;;;;18.00;17.75;;;;;30.73;33.00;101260.34;144143;625;132912;-69
2021/07/26 04:47:36;;;;;;;;;16.25;15.50;;;;;31.04;32.09;101270.66;144149;704;132013;-68
2021/07/26 04:50:29;;;;;;;;;18.00;17.75;;;;;31.34;32.02;101276.50;144150;644;132010;-68
2021/07/26 04:53:21;;;;;;;;;14.50;14.50;;;;;31.44;31.03;101277.22;144176;571;131026;-68
2021/07/26 04:56:13;;;;;;;;;21.00;15.00;;;;;31.59;31.05;101284.69;144158;579;131912;-67
2021/07/26 04:59:05;;;;;;;;;17.25;17.25;;;;;31.75;30.73;101286.59;144170;591;132012;-68
2021/07/26 05:01:57;;;;;;;;;15.50;14.50;;;;;31.79;31.04;101280.66;144156;772;131017;-68
2021/07/26 05:04:49;;;;;;;;;18.00;16.75;;;;;32.02;30.84;101286.25;144166;615;132012;-69
2021/07/26 05:07:42;;;;;;;;;20.75;19.00;;;;;32.18;30.71;101277.28;144166;595;131016;-67
2021/07/26 05:10:34;;;;;;;;;17.00;16.00;;;;;32.28;30.02;101284.41;144176;705;131021;-68
2021/07/26 05:13:26;;;;;;;;;17.50;17.50;;;;;32.42;30.02;101291.00;144151;569;131016;-67
2021/07/26 05:16:20;;;;;;;;;15.50;15.50;;;;;32.57;30.15;101289.25;144148;706;132013;-68
2021/07/26 05:19:13;;;;;;;;;18.50;16.75;;;;;32.68;30.03;101291.63;144150;611;132912;-68
2021/07/26 05:22:06;;;;;;;;;18.25;17.00;;;;;32.89;29.96;101299.22;144173;566;131020;-66
2021/07/26 05:24:59;;;;;;;;;17.25;16.25;;;;;33.04;29.51;101296.59;144155;584;131017;-67
2021/07/26 05:27:51;;;;;;;;;16.00;16.00;;;;;33.18;29.45;101299.59;144174;595;131020;-67
2021/07/26 05:30:44;;;;;;;;;18.00;16.00;;;;;33.26;29.13;101304.16;144149;585;133912;-66
2021/07/26 05:33:36;;;;;;;;;16.50;15.25;;;;;33.41;28.77;101302.38;144171;625;132025;-67
2021/07/26 05:36:28;;;;;;;;;17.75;17.75;;;;;33.46;28.88;101304.56;144163;579;132010;-68
2021/07/26 05:39:24;;;;;;;;;15.50;15.50;;;;;33.63;28.07;101306.16;144176;585;132008;-68
2021/07/26 05:42:16;;;;;;;;;17.75;15.75;;;;;33.64;27.75;101306.97;144155;583;131913;-68
2021/07/26 05:45:09;;;;;;;;;15.25;14.50;;;;;33.64;27.85;101313.28;144153;579;132008;-66
2021/07/26 05:48:02;;;;;;;;;16.00;15.75;;;;;33.67;28.02;101312.91;144152;575;132010;-67
2021/07/26 05:50:54;;;;;;;;;20.00;16.75;;;;;33.84;27.76;101323.72;144175;577;131020;-68
2021/07/26 05:53:46;;;;;;;;;15.75;14.75;;;;;33.99;27.73;101323.78;144155;593;131913;-68
2021/07/26 05:56:40;;;;;;;;;16.50;15.50;;;;;34.12;27.45;101321.28;144172;573;131021;-70
2021/07/26 05:59:33;;;;;;;;;15.00;14.75;;;;;34.18;27.37;101320.53;144146;579;132010;-71
2021/07/26 06:02:24;;;;;;;;;15.25;15.00;;;;;34.28;27.57;101325.69;144170;581;131021;-70
2021/07/26 06:05:16;;;;;;;;;15.75;15.25;;;;;34.34;26.78;101327.72;144168;602;131016;-70
2021/07/26 06:08:09;;;;;;;;;15.75;15.00;;;;;34.32;27.00;101331.69;144176;639;131020;-70
2021/07/26 06:11:04;;;;;;;;;16.00;15.25;;;;;34.07;27.32;101335.44;144157;580;131017;-68
2021/07/26 06:13:56;;;;;;;;;12.25;12.25;;;;;34.20;27.24;101340.28;144154;602;131020;-66
2021/07/26 06:16:50;;;;;;;;;16.00;16.00;;;;;34.43;26.42;101338.56;144131;583;148011;-67
2021/07/26 06:19:42;;;;;;;;;16.00;15.00;;;;;34.55;26.40;101332.44;144166;587;132012;-68
2021/07/26 06:22:34;;;;;;;;;16.50;16.00;;;;;34.58;26.56;101333.97;144153;582;131912;-68
2021/07/26 06:25:27;;;;;;;;;19.50;19.25;;;;;34.64;26.62;101329.63;144172;580;131021;-67
2021/07/26 06:28:19;;;;;;;;;18.50;18.50;;;;;34.66;26.97;101333.88;144146;631;132012;-70
2021/07/26 06:31:11;;;;;;;;;20.75;20.75;;;;;34.88;26.71;101331.28;144178;588;131021;-69
2021/07/26 06:34:04;;;;;;;;;30.25;29.25;;;;;35.09;26.35;101333.25;144161;582;132912;-70
2021/07/26 06:40:30;;;;;;;;;29.75;27.25;;;;;34.83;26.88;101337.31;144156;594;131911;-71
2021/07/26 06:43:22;;;;;;;;;31.25;29.25;;;;;34.50;27.04;101334.03;144160;587;132008;-70
2021/07/26 06:46:15;;;;;;;;;26.25;25.75;;;;;34.44;27.88;101345.72;144151;608;132011;-69
2021/07/26 06:49:07;;;;;;;;;24.25;24.25;;;;;34.24;28.25;101341.59;144173;576;131020;-72
2021/07/26 06:51:59;;;;;;;;;26.50;26.25;;;;;35.05;27.64;101342.84;144155;565;132010;-69
2021/07/26 06:54:51;;;;;;;;;29.25;28.25;;;;;35.30;26.83;101340.62;144175;587;132009;-70
2021/07/26 06:57:44;;;;;;;;;28.00;25.75;;;;;35.22;26.76;101347.03;144155;671;131912;-70
2021/07/26 07:00:36;;;;;;;;;20.50;19.50;;;;;35.11;27.84;101344.78;144175;564;132008;-71
2021/07/26 07:03:28;;;;;;;;;20.50;19.50;;;;;34.69;28.36;101346.28;144165;648;132010;-70
2021/07/26 07:06:23;;;;;;;;;17.75;17.75;;;;;35.41;27.34;101339.31;144174;594;131020;-69
2021/07/26 07:09:16;;;;;;;;;22.25;20.50;;;;;34.73;28.16;101347.59;144158;619;131017;-69
2021/07/26 07:12:08;;;;;;;;;18.00;18.00;;;;;35.70;26.48;101342.97;144157;618;131020;-69
2021/07/26 07:15:01;;;;;;;;;18.25;18.25;;;;;35.84;26.39;101331.19;144156;580;131016;-69
2021/07/26 07:17:53;;;;;;;;;15.75;15.25;;;;;35.69;25.54;101339.41;144142;610;146008;-69
2021/07/26 07:20:45;;;;;;;;;16.50;16.50;;;;;35.59;26.25;101333.41;144157;585;131016;-69
2021/07/26 07:23:37;;;;;;;;;18.00;17.25;;;;;35.79;26.25;101339.06;144177;580;131020;-69
2021/07/26 07:26:31;;;;;;;;;15.25;15.25;;;;;35.58;26.39;101340.75;144151;569;132010;-69
2021/07/26 07:29:23;;;;;;;;;15.50;14.00;;;;;35.96;25.89;101336.09;144179;645;131013;-69
2021/07/26 07:32:15;;;;;;;;;18.50;18.00;;;;;36.05;25.96;101340.41;144166;581;132010;-69
2021/07/26 07:35:08;;;;;;;;;23.25;23.25;;;;;33.04;31.41;101344.72;144169;577;132008;-71
2021/07/26 07:38:00;;;;;;;;;17.50;17.50;;;;;32.45;32.71;101345.00;144147;670;132012;-70
2021/07/26 07:40:52;;;;;;;;;21.50;21.50;;;;;32.19;34.64;101349.59;144153;594;132012;-69
2021/07/26 07:43:44;;;;;;;;;19.50;19.50;;;;;32.53;34.17;101351.28;144151;588;132016;-71
2021/07/26 07:46:37;;;;;;;;;18.25;17.00;;;;;32.19;35.16;101348.75;144172;569;131021;-68
2021/07/26 07:49:29;;;;;;;;;20.00;19.75;;;;;31.84;35.84;101348.03;144153;571;131019;-70
2021/07/26 07:52:21;;;;;;;;;18.50;17.00;;;;;32.70;33.61;101346.66;144170;622;132008;-70
2021/07/26 07:55:14;;;;;;;;;18.75;18.75;;;;;32.93;34.30;101331.47;144152;773;132010;-70
2021/07/26 07:58:06;;;;;;;;;18.00;18.00;;;;;32.45;34.79;101343.13;144173;600;132008;-71
2021/07/26 08:00:59;;;;;;;;;18.50;17.00;;;;;31.71;37.54;101353.94;144166;576;132010;-72
2021/07/26 08:03:52;;;;;;;;;14.25;14.25;;;;;31.88;36.07;101350.22;144176;627;131020;-69
2021/07/26 08:06:44;;;;;;;;;16.00;15.75;;;;;32.65;36.50;101345.47;144159;628;131890;-69
2021/07/26 08:09:36;;;;;;;;;12.75;12.75;;;;;32.12;37.88;101339.56;144158;625;131020;-71
2021/07/26 08:12:29;;;;;;;;;11.25;11.25;;;;;31.43;39.07;101351.47;144148;687;132010;-69
2021/07/26 08:15:21;;;;;;;;;16.25;16.25;;;;;31.38;39.86;101353.81;144172;600;131021;-68
2021/07/26 08:18:14;;;;;;;;;15.75;13.50;;;;;31.97;37.81;101355.66;144149;571;132016;-69
2021/07/26 08:21:06;;;;;;;;;15.50;15.50;;;;;32.45;36.81;101348.56;144162;599;132038;-68
2021/07/26 08:23:59;;;;;;;;;18.25;18.25;;;;;32.71;37.24;101345.66;144147;606;132010;-70
2021/07/26 08:26:52;;;;;;;;;15.50;15.50;;;;;32.37;38.64;101348.59;144165;604;132020;-69
2021/07/26 08:29:45;;;;;;;;;14.50;14.50;;;;;33.33;36.00;101348.69;144157;589;132016;-68
2021/07/26 08:32:37;;;;;;;;;14.50;14.50;;;;;34.49;33.52;101345.97;144164;597;132024;-69
2021/07/26 08:35:31;;;;;;;;;13.25;13.25;;;;;33.83;35.23;101363.72;144141;597;132016;-68
2021/07/26 08:38:23;;;;;;;;;17.75;16.25;;;;;32.78;37.04;101351.25;144145;601;132024;-69
2021/07/26 08:41:15;;;;;;;;;14.25;13.50;;;;;32.72;36.98;101346.50;144145;584;132016;-69
2021/07/26 08:44:09;;;;;;;;;15.50;14.75;;;;;33.16;37.23;101346.03;144161;569;132008;-69
2021/07/26 08:47:04;;;;;;;;;17.00;14.00;;;;;34.45;34.45;101342.78;144143;579;132016;-69
2021/07/26 08:50:02;;;;;;;;;17.00;17.00;;;;;34.79;32.60;101341.41;144164;588;132020;-69
2021/07/26 08:52:56;;;;;;;;;18.50;16.50;;;;;34.88;32.45;101343.00;144145;615;132011;-68
2021/07/26 08:55:51;;;;;;;;;14.25;14.25;;;;;34.87;31.44;101346.78;144165;690;132020;-69
2021/07/26 08:58:44;;;;;;;;;15.25;15.25;;;;;34.58;31.85;101351.19;144154;643;132010;-69
2021/07/26 09:01:42;;;;;;;;;13.00;13.00;;;;;34.04;33.35;101346.69;144165;770;132021;-69
2021/07/26 09:04:37;;;;;;;;;15.00;15.00;;;;;33.70;32.57;101349.81;144139;583;132016;-68
2021/07/26 09:07:31;;;;;;;;;17.00;16.00;;;;;34.86;31.17;101339.63;144159;673;131020;-69
2021/07/26 09:10:28;;;;;;;;;15.50;15.50;;;;;34.86;30.85;101336.09;144149;572;132012;-69
2021/07/26 09:13:38;;;;;;;;;16.75;16.75;;;;;34.63;31.03;101339.69;144169;592;131020;-68
2021/07/26 09:16:32;;;;;;;;;13.00;12.75;;;;;34.90;31.25;101330.03;144155;590;131912;-68
2021/07/26 09:19:23;;;;;;;;;16.25;14.50;;;;;35.17;30.90;101335.00;144175;666;131020;-68
2021/07/26 09:22:29;;;;;;;;;13.00;12.25;;;;;35.15;30.21;101332.47;144155;612;131017;-68
2021/07/26 09:25:34;;;;;;;;;17.75;15.25;;;;;34.65;30.78;101334.94;144173;584;132008;-67
2021/07/26 09:28:26;;;;;;;;;16.50;15.25;;;;;34.67;30.49;101334.72;144167;576;131912;-67
2021/07/26 09:31:19;;;;;;;;;13.00;13.00;;;;;34.51;30.57;101331.13;144176;612;131021;-68
2021/07/26 09:34:26;;;;;;;;;14.00;14.00;;;;;33.45;32.67;101336.38;144154;641;131041;-70
2021/07/26 09:37:21;;;;;;;;;14.25;13.75;;;;;32.85;33.81;101327.78;144156;631;131012;-71
2021/07/26 09:40:30;;;;;;;;;17.75;17.50;;;;;32.94;33.77;101327.75;144151;641;132010;-70
2021/07/26 09:43:26;;;;;;;;;18.00;17.75;;;;;33.31;32.95;101326.25;144169;566;132008;-71
2021/07/26 09:46:30;;;;;;;;;16.50;16.50;;;;;33.42;32.88;101327.72;144159;596;131012;-70
2021/07/26 09:49:24;;;;;;;;;15.00;15.00;;;;;33.49;32.31;101325.97;144172;627;132012;-72
2021/07/26 09:52:21;;;;;;;;;15.00;15.00;;;;;32.85;32.17;101314.19;144148;620;132010;-70
2021/07/26 09:55:14;;;;;;;;;17.50;17.00;;;;;32.14;34.25;101326.66;144172;592;131020;-71
2021/07/26 09:58:06;;;;;;;;;16.25;16.25;;;;;32.42;33.20;101318.16;144164;612;131912;-72
2021/07/26 10:00:59;;;;;;;;;16.00;16.00;;;;;32.36;32.58;101325.97;144172;583;132008;-73
2021/07/26 10:03:55;;;;;;;;;15.75;13.75;;;;;32.06;31.75;101325.63;144150;563;132010;-73
2021/07/26 10:06:49;;;;;;;;;13.25;11.50;;;;;32.94;29.48;101320.41;144156;623;131021;-79
2021/07/26 10:09:46;;;;;;;;;14.00;14.00;;;;;32.66;29.98;101318.13;144151;571;132010;-72
2021/07/26 10:12:38;;;;;;;;;10.75;10.75;;;;;32.45;29.87;101324.13;144171;773;132008;-72
2021/07/26 10:15:32;;;;;;;;;11.00;11.00;;;;;32.59;29.22;101321.69;144157;599;131016;-74
2021/07/26 10:18:24;;;;;;;;;12.75;12.75;;;;;32.80;29.82;101313.00;144176;563;131012;-72
2021/07/26 10:21:22;;;;;;;;;14.75;14.75;;;;;33.24;29.54;101317.94;144155;575;131913;-73
2021/07/26 10:24:17;;;;;;;;;11.25;11.25;;;;;33.08;29.96;101318.84;144175;606;131020;-72
2021/07/26 10:27:17;;;;;;;;;15.25;14.25;;;;;33.04;29.99;101307.47;144171;580;131012;-73
2021/07/26 10:30:10;;;;;;;;;10.75;10.75;;;;;32.71;30.52;101301.31;144168;577;132008;-71
2021/07/26 10:33:03;;;;;;;;;15.75;15.75;;;;;32.77;30.92;101300.63;144152;618;132924;-72
2021/07/26 10:35:59;;;;;;;;;14.50;14.50;;;;;33.04;30.95;101306.62;144159;590;131021;-74
2021/07/26 10:38:59;;;;;;;;;7.75;7.75;;;;;33.75;29.46;101309.31;144160;683;131016;-72
2021/07/26 10:42:04;;;;;;;;;12.00;12.00;;;;;33.99;29.20;101305.53;144170;571;131020;-74
2021/07/26 10:44:56;;;;;;;;;14.00;12.00;;;;;33.57;30.72;101313.16;144154;563;132010;-73
2021/07/26 10:47:48;;;;;;;;;15.00;15.00;;;;;32.71;32.62;101317.59;144177;618;132008;-74
2021/07/26 10:50:44;;;;;;;;;18.00;14.75;;;;;32.88;31.70;101311.09;144152;620;132010;-72
2021/07/26 10:53:59;;;;;;;;;17.25;16.75;;;;;32.95;35.91;101300.38;144170;606;132012;-73
2021/07/26 10:57:10;;;;;;;;;13.00;13.00;;;;;32.69;33.22;101316.91;144163;569;132010;-73
2021/07/26 11:00:32;;;;;;;;;8.75;8.75;;;;;33.28;32.20;101319.28;144173;579;132012;-74
2021/07/26 11:03:45;;;;;;;;;11.75;11.75;;;;;32.74;35.63;101320.00;144150;585;132010;-72
2021/07/26 11:07:03;;;;;;;;;14.50;11.50;;;;;32.33;34.26;101280.16;144154;602;132008;-72
2021/07/26 11:09:56;;;;;;;;;13.25;12.00;;;;;33.79;30.72;101307.06;144153;569;131016;-73
2021/07/26 11:13:20;;;;;;;;;10.50;9.50;;;;;32.75;32.30;101301.81;144179;566;131020;-73
2021/07/26 11:16:13;;;;;;;;;9.25;9.25;;;;;32.97;31.79;101301.06;144154;569;131016;-73
2021/07/26 11:20:05;;;;;;;;;11.25;11.25;;;;;33.34;32.40;101285.06;144179;575;131020;-72
2021/07/26 11:23:00;;;;;;;;;12.00;12.00;;;;;33.26;32.74;101293.28;144151;575;131910;-72
2021/07/26 11:25:54;;;;;;;;;12.75;12.25;;;;;33.10;35.07;101294.19;144165;599;132012;-71
2021/07/26 11:28:47;;;;;;;;;11.25;11.25;;;;;32.59;35.51;101294.50;144165;620;132012;-72
2021/07/26 11:31:40;;;;;;;;;12.00;11.25;;;;;33.01;33.15;101296.09;144172;565;131020;-71
2021/07/26 11:34:34;;;;;;;;;12.00;10.25;;;;;32.80;35.62;101280.38;144154;703;131016;-72
2021/07/26 11:37:54;;;;;;;;;9.25;8.50;;;;;33.31;33.42;101290.87;144159;581;132008;-74
2021/07/26 11:40:47;;;;;;;;;13.50;13.00;;;;;33.11;33.70;101288.56;144160;695;131030;-74
2021/07/26 11:43:44;;;;;;;;;11.25;11.00;;;;;33.17;32.69;101293.28;144175;602;132008;-72
2021/07/26 11:46:38;;;;;;;;;10.00;10.00;;;;;32.88;32.33;101281.19;144154;604;131016;-74
2021/07/26 11:49:30;;;;;;;;;13.25;12.50;;;;;34.33;31.08;101278.88;144170;581;132008;-73
2021/07/26 11:52:22;;;;;;;;;9.50;9.50;;;;;34.90;30.76;101270.03;144158;582;131017;-74
2021/07/26 11:55:16;;;;;;;;;10.25;9.75;;;;;34.19;32.02;101273.19;144178;689;131020;-73
2021/07/26 11:58:10;;;;;;;;;11.00;11.00;;;;;34.67;31.27;101264.69;144163;591;131017;-73
2021/07/26 12:01:02;;;;;;;;;13.75;13.75;;;;;34.29;31.19;101263.91;144172;633;132008;-73
2021/07/26 12:03:54;;;;;;;;;11.50;11.50;;;;;34.57;31.91;101264.09;144151;568;132012;-73
2021/07/26 12:07:05;;;;;;;;;10.50;9.50;;;;;34.08;31.10;101260.87;144158;658;131021;-74
2021/07/26 12:09:57;;;;;;;;;8.75;8.75;;;;;33.99;32.45;101269.31;144152;581;132010;-73
2021/07/26 12:12:49;;;;;;;;;10.00;10.00;;;;;34.73;29.83;101260.34;144170;587;132012;-73
2021/07/26 12:15:43;;;;;;;;;8.75;8.75;;;;;34.16;31.31;101262.66;144150;581;132010;-73
2021/07/26 12:18:36;;;;;;;;;14.00;11.00;;;;;34.37;30.87;101252.94;144182;572;131008;-74
2021/07/26 12:21:43;;;;;;;;;12.75;11.25;;;;;34.08;31.66;101260.03;144156;585;131913;-73
2021/07/26 12:25:00;;;;;;;;;12.00;8.50;;;;;32.84;33.45;101259.97;144169;580;132012;-74
2021/07/26 12:28:03;;;;;;;;;12.25;11.00;;;;;34.01;31.00;101261.78;144167;649;131913;-73
2021/07/26 12:30:56;;;;;;;;;10.50;9.00;;;;;33.67;33.24;101252.19;144178;687;131020;-75
2021/07/26 12:33:48;;;;;;;;;11.00;10.00;;;;;33.25;32.37;101251.63;144158;636;131913;-73
2021/07/26 12:36:39;;;;;;;;;10.50;10.50;;;;;34.08;30.67;101255.41;144157;674;132008;-74
2021/07/26 12:39:42;;;;;;;;;10.75;9.50;;;;;34.29;30.05;101248.38;144157;617;132010;-73
2021/07/26 12:42:34;;;;;;;;;10.50;8.00;;;;;34.44;29.69;101242.16;144170;585;132012;-73
2021/07/26 12:45:27;;;;;;;;;10.50;9.50;;;;;33.54;30.47;101252.78;144151;596;132010;-72
2021/07/26 12:48:21;;;;;;;;;12.75;11.75;;;;;34.16;29.15;101248.19;144173;580;132028;-73
2021/07/26 12:51:13;;;;;;;;;10.25;10.00;;;;;34.21;29.48;101232.97;144159;570;132010;-74
2021/07/26 12:54:05;;;;;;;;;12.00;11.25;;;;;34.43;29.04;101241.28;144172;600;132008;-70
2021/07/26 12:56:57;;;;;;;;;9.00;8.25;;;;;34.33;28.59;101238.00;144167;705;131016;-70
2021/07/26 12:59:50;;;;;;;;;12.00;10.25;;;;;34.07;28.63;101222.91;144174;602;132008;-70
2021/07/26 13:02:42;;;;;;;;;13.25;11.25;;;;;33.69;29.93;101240.06;144159;631;131912;-69
2021/07/26 13:05:36;;;;;;;;;11.25;10.50;;;;;35.29;27.82;101234.38;144156;595;132012;-70
2021/07/26 13:08:28;;;;;;;;;9.50;9.00;;;;;34.89;27.47;101227.44;144157;600;131016;-70
2021/07/26 13:11:20;;;;;;;;;9.25;9.25;;;;;34.20;28.09;101223.13;144174;600;132008;-70